Stuart, FL

9:45 AM EDT on July 06, 2015 (GMT -0400)
Witham | | Change Station
CLOSE
Current Station
Airport
Location: Stuart,
Elevation: 20 ft
Nearby Weather Stations

Elev 20 ft 27.18 °N, 80.22 °W | Updated 58 minutes ago

Partly Cloudy
Partly Cloudy
77 °F
Feels Like 77 °F
N
0
Wind Variable Wind from North

Today
High -- | Low -- °F
--% Chance of Precip.
Yesterday
High -- | Low -- °F
Precip. -- in
6:31 AM 8:19 PM
Waning Gibbous, 75% visible
Pressure 30.19 in
Visibility 7.0 miles
Clouds Few 2500 ft
Dew Point 66 °F
Humidity 69%
Rainfall 0.00 in
Snow Depth Not available.
UV 3 out of 12
Pollen 4.60 out of 12
Air Quality Not available.
Flu Activity Not available.
METAR KSUA 061247Z 00000KT 7SM FEW025 25/19 A3019

More Conditions Fewer Conditions

Pressure 30.19 in
Visibility 7.0 miles
Clouds Few 2500 ft
Dew Point 66 °F
Humidity 69%
Rainfall 0.00 in
Snow Depth Not available.
UV 3 out of 12
Pollen 4.60 out of 12
Air Quality Not available.
Flu Activity Not available.
METAR KSUA 061247Z 00000KT 7SM FEW025 25/19 A3019

More Conditions Fewer Conditions

10-Day Weather Forecast

×

Almanac

Astronomy

Jul. 06, 2015 Rise Set
Actual Time
Civil Twilight
Nautical Twilight
Astronomical Twilight
Moon
Length of Visible Light
Length of Day
Tomorrow will be .
, % of the Moon is Illuminated

Today's Extremes

State Highs State Lows

Community

WunderPhotos

Upload Photos

1,835,558 photos uploaded!

WunderBlogs® & News

Nearby

Air Quality

  Air Quality AQ Index Pollutant
Not available.

Snow Depth

Station Depth Elevation

Earthquake Activity

City Distance Mag. Time & Date
Minimum magnitude displayed is 2.5.

Coastal Water Temperatures

Place Temperature

Stations

Nearby Weather Stations

Station Location Temp. Windchill Dew Point Humidity Wind Precip. Elev Updated Type